createdAt,value
2023-02-05T00:00:50.277Z,6.40
2023-02-05T00:03:16.893Z,6.05
2023-02-05T00:05:43.616Z,5.53
2023-02-05T00:08:10.175Z,3.45
2023-02-05T00:10:36.729Z,4.20
2023-02-05T00:13:03.345Z,7.15
2023-02-05T00:15:30.104Z,3.80
2023-02-05T00:17:56.624Z,5.32
2023-02-05T00:20:23.242Z,4.63
2023-02-05T00:22:49.745Z,5.40
2023-02-05T00:25:16.537Z,5.90
2023-02-05T00:27:43.180Z,3.75
2023-02-05T00:30:10.184Z,3.63
2023-02-05T00:32:36.813Z,3.73
2023-02-05T00:35:03.433Z,5.15
2023-02-05T00:37:29.963Z,4.55
2023-02-05T00:39:56.514Z,2.42
2023-02-05T00:42:23.010Z,3.35
2023-02-05T00:44:49.545Z,4.50
2023-02-05T00:47:16.078Z,3.88
2023-02-05T00:49:42.712Z,5.60
2023-02-05T00:52:09.344Z,4.53
2023-02-05T00:54:35.885Z,3.67
2023-02-05T00:57:02.514Z,3.67
2023-02-05T00:59:28.987Z,5.38
2023-02-05T01:01:55.571Z,7.72
2023-02-05T01:04:22.077Z,5.22
2023-02-05T01:06:48.713Z,3.45
2023-02-05T01:09:15.229Z,7.97
2023-02-05T01:11:41.735Z,4.72
2023-02-05T01:14:08.293Z,5.45
2023-02-05T01:16:34.957Z,5.97
2023-02-05T01:19:01.431Z,4.38
2023-02-05T01:21:28.012Z,4.45
2023-02-05T01:23:54.797Z,4.97
2023-02-05T01:26:21.658Z,5.22
2023-02-05T01:28:48.279Z,6.05
2023-02-05T01:31:15.032Z,3.58
2023-02-05T01:33:41.667Z,2.95
2023-02-05T01:36:08.716Z,3.15
2023-02-05T01:38:35.370Z,3.80
2023-02-05T01:41:01.977Z,4.32
2023-02-05T01:43:28.671Z,3.97
2023-02-05T01:46:06.864Z,4.22
2023-02-05T01:48:42.264Z,4.55
2023-02-05T01:51:12.832Z,5.10
2023-02-05T01:53:40.408Z,4.32
2023-02-05T01:56:20.394Z,3.95
2023-02-05T01:59:10.295Z,4.50
2023-02-05T02:01:38.709Z,3.45
2023-02-05T02:04:05.878Z,4.43
2023-02-05T02:06:34.441Z,4.37
2023-02-05T02:09:02.170Z,6.75
2023-02-05T02:11:33.096Z,19.73
2023-02-05T02:14:03.446Z,11.50
2023-02-05T02:16:30.470Z,8.85
2023-02-05T02:18:57.400Z,6.15
2023-02-05T02:21:45.620Z,5.28
2023-02-05T02:24:42.632Z,6.70
2023-02-05T02:27:21.177Z,5.35
2023-02-05T02:29:55.383Z,4.45
2023-02-05T02:32:43.463Z,4.05
2023-02-05T02:35:20.989Z,3.03
2023-02-05T02:38:17.817Z,3.42
2023-02-05T02:41:04.886Z,5.43
2023-02-05T02:43:41.176Z,3.47
2023-02-05T02:46:17.863Z,3.30
2023-02-05T02:48:48.221Z,4.18
2023-02-05T02:51:17.547Z,4.95
2023-02-05T02:53:47.193Z,3.65
2023-02-05T02:56:16.327Z,3.63
2023-02-05T02:58:48.548Z,3.28
2023-02-05T03:01:23.593Z,3.65
2023-02-05T03:03:58.717Z,4.60
2023-02-05T03:06:27.075Z,5.15
2023-02-05T03:09:01.689Z,6.30
2023-02-05T03:11:28.356Z,3.80
2023-02-05T03:13:56.579Z,7.38
2023-02-05T03:16:27.266Z,4.15
2023-02-05T03:18:56.188Z,4.65
2023-02-05T03:21:34.133Z,4.35
2023-02-05T03:26:35.244Z,4.05
2023-02-05T03:29:14.766Z,3.50
2023-02-05T03:32:01.392Z,5.07
2023-02-05T03:34:57.584Z,5.10
2023-02-05T03:37:54.233Z,5.43
2023-02-05T03:43:30.915Z,3.03
2023-02-05T03:46:15.080Z,4.40
2023-02-05T03:49:00.499Z,7.55
2023-02-05T03:52:07.836Z,3.47
2023-02-05T03:54:57.541Z,4.30
2023-02-05T03:57:35.334Z,6.13
2023-02-05T04:00:02.911Z,4.57
2023-02-05T04:02:40.923Z,4.88
2023-02-05T04:05:09.204Z,4.47
2023-02-05T04:07:36.055Z,6.15
2023-02-05T04:12:31.156Z,7.10
2023-02-05T04:14:58.004Z,4.35
2023-02-05T04:17:24.625Z,6.65
2023-02-05T04:19:51.558Z,7.82
2023-02-05T04:22:20.020Z,5.43
2023-02-05T04:24:47.336Z,5.82
2023-02-05T04:27:15.051Z,5.78
2023-02-05T04:29:41.524Z,5.00
2023-02-05T04:32:08.066Z,4.65
2023-02-05T04:34:34.870Z,5.78
2023-02-05T04:37:02.113Z,6.93
2023-02-05T04:39:29.983Z,6.82
2023-02-05T04:41:56.482Z,5.57
2023-02-05T04:44:23.435Z,8.20
2023-02-05T04:46:50.039Z,6.82
2023-02-05T04:49:16.632Z,6.18
2023-02-05T04:51:43.130Z,7.68
2023-02-05T04:54:09.700Z,7.35
2023-02-05T04:56:36.192Z,5.82
2023-02-05T04:59:02.739Z,6.57
2023-02-05T05:01:29.420Z,5.72
2023-02-05T05:03:55.940Z,6.05
2023-02-05T05:06:22.539Z,7.88
2023-02-05T05:08:49.009Z,4.72
2023-02-05T05:11:18.203Z,7.15
2023-02-05T05:13:45.913Z,6.38
2023-02-05T05:16:12.997Z,4.13
2023-02-05T05:18:40.706Z,4.05
2023-02-05T05:21:07.936Z,5.45
2023-02-05T05:23:35.320Z,4.90
2023-02-05T05:26:04.833Z,7.13
2023-02-05T05:28:31.550Z,4.93
2023-02-05T05:30:58.145Z,4.50
2023-02-05T05:33:24.608Z,4.47
2023-02-05T05:35:51.083Z,4.63
2023-02-05T05:38:17.627Z,4.18
2023-02-05T05:40:44.102Z,4.18
2023-02-05T05:43:13.004Z,3.92
2023-02-05T05:45:39.638Z,5.35
2023-02-05T05:48:06.204Z,4.35
2023-02-05T05:50:32.668Z,4.38
2023-02-05T05:53:01.563Z,4.60
2023-02-05T05:55:28.020Z,3.85
2023-02-05T05:57:54.626Z,5.70
2023-02-05T06:00:21.228Z,6.65
2023-02-05T06:02:47.830Z,3.35
2023-02-05T06:05:14.537Z,4.43
2023-02-05T06:07:41.120Z,5.35
2023-02-05T06:10:08.379Z,3.95
2023-02-05T06:12:34.910Z,10.70
2023-02-05T06:15:01.412Z,7.40
2023-02-05T06:17:28.260Z,6.35
2023-02-05T06:19:55.263Z,4.38
2023-02-05T06:22:22.025Z,3.53
2023-02-05T06:24:48.589Z,4.03
2023-02-05T06:27:15.120Z,4.30
2023-02-05T06:29:41.662Z,7.53
2023-02-05T06:32:08.297Z,6.25
2023-02-05T06:34:34.792Z,5.00
2023-02-05T06:37:01.375Z,5.05
2023-02-05T06:39:27.979Z,2.67
2023-02-05T06:41:54.430Z,6.30
2023-02-05T06:44:21.010Z,4.25
2023-02-05T06:46:47.749Z,4.05
2023-02-05T06:49:14.200Z,4.57
2023-02-05T06:51:40.893Z,4.40
2023-02-05T06:54:07.495Z,6.15
2023-02-05T06:56:33.937Z,6.35
2023-02-05T06:59:00.373Z,4.72
2023-02-05T07:01:27.189Z,4.55
2023-02-05T07:03:56.098Z,4.28
2023-02-05T07:06:23.362Z,3.88
2023-02-05T07:08:50.813Z,4.95
2023-02-05T07:11:17.576Z,2.80
2023-02-05T07:13:44.162Z,4.15
2023-02-05T07:16:10.809Z,3.92
2023-02-05T07:18:37.631Z,3.20
2023-02-05T07:21:06.981Z,3.40
2023-02-05T07:23:34.144Z,2.92
2023-02-05T07:26:26.990Z,2.92
2023-02-05T07:28:53.591Z,4.15
2023-02-05T07:31:20.162Z,3.20
2023-02-05T07:33:47.642Z,3.25
2023-02-05T07:36:16.409Z,3.97
2023-02-05T07:38:44.922Z,4.05
2023-02-05T07:41:14.560Z,4.00
2023-02-05T07:43:41.529Z,4.57
2023-02-05T07:46:11.817Z,6.85
2023-02-05T07:48:38.793Z,3.97
2023-02-05T07:51:06.399Z,5.80
2023-02-05T07:53:33.158Z,4.40
2023-02-05T07:56:06.300Z,5.65
2023-02-05T07:58:32.810Z,5.40
2023-02-05T08:01:03.996Z,3.42
2023-02-05T08:03:30.955Z,3.80
2023-02-05T08:05:58.105Z,5.72
2023-02-05T08:08:25.420Z,5.33
2023-02-05T08:11:06.367Z,5.53
2023-02-05T08:13:33.568Z,5.15
2023-02-05T08:16:00.073Z,5.97
2023-02-05T08:18:26.580Z,6.13
2023-02-05T08:20:54.618Z,6.30
2023-02-05T08:25:48.264Z,5.82
2023-02-05T08:28:14.995Z,7.22
2023-02-05T08:30:41.544Z,10.57
2023-02-05T08:33:08.104Z,8.82
2023-02-05T08:35:34.933Z,6.57
2023-02-05T08:38:01.652Z,7.03
2023-02-05T08:40:28.289Z,6.85
2023-02-05T08:42:55.017Z,9.07
2023-02-05T08:45:21.565Z,8.10
2023-02-05T08:47:48.114Z,7.30
2023-02-05T08:50:14.628Z,7.53
2023-02-05T08:52:41.680Z,9.27
2023-02-05T08:55:09.021Z,7.25
2023-02-05T08:57:35.623Z,9.35
2023-02-05T09:00:02.410Z,8.38
2023-02-05T09:02:31.161Z,10.20
2023-02-05T09:05:07.968Z,5.05
2023-02-05T09:07:36.861Z,4.00
2023-02-05T09:10:03.786Z,5.88
2023-02-05T09:12:30.312Z,4.72
2023-02-05T09:14:56.808Z,3.67
2023-02-05T09:17:23.315Z,5.40
2023-02-05T09:19:49.797Z,4.38
2023-02-05T09:22:16.269Z,6.15
2023-02-05T09:24:42.764Z,7.68
2023-02-05T09:27:09.244Z,6.43
2023-02-05T09:29:35.751Z,8.20
2023-02-05T09:32:02.377Z,4.85
2023-02-05T09:34:28.921Z,5.28
2023-02-05T09:36:55.408Z,3.60
2023-02-05T09:39:52.633Z,4.78
2023-02-05T09:42:18.444Z,3.63
2023-02-05T09:45:09.536Z,3.78
2023-02-05T09:47:43.256Z,3.47
2023-02-05T09:50:21.328Z,4.30
2023-02-05T09:52:50.413Z,4.97
2023-02-05T09:55:20.063Z,4.18
2023-02-05T09:57:46.770Z,2.65
2023-02-05T10:00:45.689Z,4.40
2023-02-05T10:03:40.372Z,6.88
2023-02-05T10:06:33.776Z,6.40
2023-02-05T10:09:09.528Z,3.08
2023-02-05T10:11:51.107Z,4.63
2023-02-05T10:14:35.307Z,3.67
2023-02-05T10:17:12.065Z,4.57
2023-02-05T10:20:03.321Z,2.85
2023-02-05T10:22:47.512Z,7.40
2023-02-05T10:25:34.045Z,5.85
2023-02-05T10:28:19.238Z,3.28
2023-02-05T10:30:55.557Z,2.10
2023-02-05T10:33:44.865Z,4.43
2023-02-05T10:36:12.625Z,1.83
2023-02-05T10:38:44.748Z,2.15
2023-02-05T10:41:42.836Z,3.67
2023-02-05T10:44:24.268Z,3.47
2023-02-05T10:46:56.472Z,4.22
2023-02-05T10:49:42.609Z,5.75
2023-02-05T10:52:13.944Z,5.40
2023-02-05T10:54:40.712Z,4.68
2023-02-05T10:57:16.749Z,4.85
2023-02-05T11:00:12.788Z,6.53
2023-02-05T11:02:41.516Z,7.97
2023-02-05T11:05:20.202Z,4.53
2023-02-05T11:07:49.404Z,3.28
2023-02-05T11:10:21.572Z,5.90
2023-02-05T11:13:02.131Z,7.80
2023-02-05T11:15:31.780Z,2.78
2023-02-05T11:18:01.679Z,4.70
2023-02-05T11:20:37.763Z,6.10
2023-02-05T11:23:23.104Z,4.60
2023-02-05T11:25:50.821Z,3.42
2023-02-05T11:28:22.794Z,3.40
2023-02-05T11:30:51.540Z,4.63
2023-02-05T11:33:21.796Z,5.07
2023-02-05T11:36:05.335Z,3.60
2023-02-05T11:38:54.087Z,4.95
2023-02-05T11:41:38.773Z,25.00
2023-02-05T11:44:05.526Z,5.03
2023-02-05T11:46:42.532Z,7.30
2023-02-05T11:49:21.310Z,5.85
2023-02-05T11:51:53.241Z,5.00
2023-02-05T11:54:25.426Z,7.90
2023-02-05T11:57:04.361Z,7.70
2023-02-05T11:59:31.849Z,6.22
2023-02-05T12:02:26.308Z,7.45
2023-02-05T12:05:03.590Z,5.78
2023-02-05T12:07:37.808Z,7.20
2023-02-05T12:10:12.410Z,6.63
2023-02-05T12:12:50.973Z,12.90
2023-02-05T12:15:29.424Z,6.82
2023-02-05T12:18:20.889Z,9.55
2023-02-05T12:21:08.691Z,7.57
2023-02-05T12:23:59.345Z,12.50
2023-02-05T12:26:37.085Z,10.90
2023-02-05T12:29:17.018Z,11.75
2023-02-05T12:31:59.057Z,7.00
2023-02-05T12:34:45.650Z,10.82
2023-02-05T12:37:43.401Z,11.57
2023-02-05T12:40:37.799Z,9.93
2023-02-05T12:43:09.876Z,6.57
2023-02-05T12:45:55.521Z,9.18
2023-02-05T12:49:12.677Z,9.43
2023-02-05T12:52:10.279Z,13.35
2023-02-05T12:54:54.270Z,8.35
2023-02-05T12:57:29.389Z,9.80
2023-02-05T13:00:02.503Z,6.38
2023-02-05T13:03:07.348Z,13.60
2023-02-05T13:05:50.987Z,4.72
2023-02-05T13:08:36.123Z,5.10
2023-02-05T13:11:17.249Z,6.55
2023-02-05T13:13:56.427Z,3.70
2023-02-05T13:16:30.882Z,9.82
2023-02-05T13:19:05.370Z,9.55
2023-02-05T13:21:33.196Z,7.88
2023-02-05T13:24:21.437Z,8.68
2023-02-05T13:26:48.260Z,8.63
2023-02-05T13:29:17.774Z,15.13
2023-02-05T13:31:49.813Z,7.22
2023-02-05T13:34:18.106Z,5.93
2023-02-05T13:37:25.390Z,16.10
2023-02-05T13:40:10.200Z,7.80
2023-02-05T13:43:10.424Z,8.90
2023-02-05T13:46:21.416Z,8.77
2023-02-05T13:49:06.562Z,7.95
2023-02-05T13:51:47.885Z,6.47
2023-02-05T13:54:45.623Z,13.43
2023-02-05T13:57:38.492Z,7.57
2023-02-05T14:00:10.089Z,13.98
2023-02-05T14:02:47.164Z,5.93
2023-02-05T14:05:14.233Z,13.20
2023-02-05T14:07:48.675Z,6.65
2023-02-05T14:10:26.848Z,11.90
2023-02-05T14:12:54.334Z,17.63
2023-02-05T14:15:20.759Z,8.95
2023-02-05T14:17:47.247Z,10.02
2023-02-05T14:20:25.808Z,9.82
2023-02-05T14:22:54.327Z,15.05
2023-02-05T14:25:36.423Z,17.98
2023-02-05T14:28:03.831Z,13.45
2023-02-05T14:30:30.410Z,26.52
2023-02-05T14:32:59.938Z,14.88
2023-02-05T14:35:33.315Z,17.30
2023-02-05T14:38:02.205Z,26.55
2023-02-05T14:40:33.681Z,21.27
2023-02-05T14:43:12.875Z,23.52
2023-02-05T14:45:45.110Z,17.02
2023-02-05T14:48:30.654Z,16.50
2023-02-05T14:51:01.530Z,16.58
2023-02-05T14:53:29.290Z,14.93
2023-02-05T14:55:55.931Z,9.70
2023-02-05T14:58:30.577Z,7.78
2023-02-05T15:01:34.247Z,16.70
2023-02-05T15:04:05.468Z,10.57
2023-02-05T15:06:40.270Z,8.93
2023-02-05T15:09:17.701Z,6.95
2023-02-05T15:11:56.393Z,9.85
2023-02-05T15:14:22.920Z,11.43
2023-02-05T15:17:04.890Z,7.63
2023-02-05T15:19:49.558Z,5.25
2023-02-05T15:22:36.376Z,5.55
2023-02-05T15:25:31.186Z,5.03
2023-02-05T15:28:02.258Z,7.78
2023-02-05T15:30:39.005Z,5.90
2023-02-05T15:33:13.154Z,7.47
2023-02-05T15:35:44.379Z,5.97
2023-02-05T15:38:41.341Z,7.43
2023-02-05T15:41:10.617Z,6.50
2023-02-05T15:43:37.224Z,11.90
2023-02-05T15:46:07.591Z,9.43
2023-02-05T15:48:36.608Z,8.98
2023-02-05T15:51:17.676Z,11.63
2023-02-05T15:53:49.510Z,8.73
2023-02-05T15:56:34.573Z,8.73
2023-02-05T15:59:10.140Z,5.28
2023-02-05T16:01:44.344Z,7.43
2023-02-05T16:04:22.634Z,8.43
2023-02-05T16:06:49.277Z,7.53
2023-02-05T16:09:20.513Z,8.48
2023-02-05T16:11:47.981Z,6.30
2023-02-05T16:14:17.197Z,5.65
2023-02-05T16:17:14.491Z,7.10
2023-02-05T16:19:49.238Z,3.88
2023-02-05T16:22:34.259Z,9.23
2023-02-05T16:25:07.097Z,5.15
2023-02-05T16:27:43.738Z,7.45
2023-02-05T16:30:36.843Z,9.00
2023-02-05T16:33:04.821Z,11.52
2023-02-05T16:35:42.174Z,5.53
2023-02-05T16:38:16.910Z,6.25
2023-02-05T16:40:46.422Z,5.13
2023-02-05T16:43:36.113Z,7.10
2023-02-05T16:46:08.535Z,5.05
2023-02-05T16:48:47.008Z,6.22
2023-02-05T16:51:51.496Z,5.05
2023-02-05T16:54:17.941Z,6.13
2023-02-05T16:56:50.633Z,6.38
2023-02-05T16:59:24.340Z,5.82
2023-02-05T17:01:52.653Z,5.75
2023-02-05T17:04:22.734Z,7.50
2023-02-05T17:06:49.252Z,6.50
2023-02-05T17:09:32.541Z,5.88
2023-02-05T17:12:36.363Z,4.00
2023-02-05T17:15:15.185Z,4.03
2023-02-05T17:17:57.010Z,4.57
2023-02-05T17:20:25.393Z,4.30
2023-02-05T17:23:00.933Z,6.70
2023-02-05T17:25:29.085Z,6.57
2023-02-05T17:30:22.505Z,7.28
2023-02-05T17:32:49.295Z,7.60
2023-02-05T17:35:20.483Z,6.65
2023-02-05T17:37:46.968Z,12.77
2023-02-05T17:40:13.775Z,7.07
2023-02-05T17:42:40.763Z,7.22
2023-02-05T17:45:22.645Z,14.48
2023-02-05T17:47:49.181Z,10.27
2023-02-05T17:50:18.998Z,7.95
2023-02-05T17:52:46.142Z,8.85
2023-02-05T17:55:18.207Z,16.45
2023-02-05T17:57:45.355Z,23.52
2023-02-05T18:00:24.217Z,25.35
2023-02-05T18:02:51.013Z,28.05
2023-02-05T18:05:17.622Z,26.52
2023-02-05T18:07:50.698Z,20.52
2023-02-05T18:10:23.240Z,12.20
2023-02-05T18:12:50.180Z,16.25
2023-02-05T18:15:16.863Z,11.95
2023-02-05T18:17:43.469Z,13.48
2023-02-05T18:20:12.158Z,20.83
2023-02-05T18:22:39.025Z,16.02
2023-02-05T18:25:06.355Z,10.38
2023-02-05T18:27:33.223Z,11.00
2023-02-05T18:29:59.752Z,12.60
2023-02-05T18:32:26.360Z,13.27
2023-02-05T18:34:52.812Z,8.82
2023-02-05T18:37:19.568Z,8.30
2023-02-05T18:39:46.355Z,7.28
2023-02-05T18:42:12.900Z,7.35
2023-02-05T18:44:39.946Z,9.80
2023-02-05T18:47:09.646Z,13.45
2023-02-05T18:49:36.224Z,10.85
2023-02-05T18:52:02.822Z,8.25
2023-02-05T18:54:29.369Z,9.10
2023-02-05T18:56:55.868Z,12.50
2023-02-05T18:59:22.820Z,13.48
2023-02-05T19:01:50.138Z,14.40
2023-02-05T19:04:16.970Z,11.65
2023-02-05T19:06:45.909Z,12.32
2023-02-05T19:09:12.497Z,9.82
2023-02-05T19:11:39.069Z,7.93
2023-02-05T19:14:05.563Z,14.55
2023-02-05T19:16:35.262Z,9.07
2023-02-05T19:19:02.667Z,12.38
2023-02-05T19:21:29.931Z,10.52
2023-02-05T19:23:58.464Z,8.55
2023-02-05T19:26:29.418Z,8.32
2023-02-05T19:28:58.294Z,10.02
2023-02-05T19:31:28.248Z,12.77
2023-02-05T19:33:55.723Z,13.95
2023-02-05T19:36:22.861Z,13.40
2023-02-05T19:38:49.591Z,16.13
2023-02-05T19:41:19.038Z,9.80
2023-02-05T19:43:50.834Z,9.70
2023-02-05T19:46:19.566Z,10.85
2023-02-05T19:48:46.279Z,7.80
2023-02-05T19:51:13.939Z,9.15
2023-02-05T19:53:42.263Z,8.88
2023-02-05T19:56:12.417Z,7.72
2023-02-05T19:58:41.271Z,7.80
2023-02-05T20:01:14.516Z,6.97
2023-02-05T20:03:41.885Z,7.05
2023-02-05T20:06:09.587Z,7.65
2023-02-05T20:08:36.459Z,10.25
2023-02-05T20:11:04.065Z,8.55
2023-02-05T20:13:33.208Z,14.25
2023-02-05T20:16:14.102Z,5.63
2023-02-05T20:18:41.698Z,9.90
2023-02-05T20:21:10.691Z,5.38
2023-02-05T20:23:39.309Z,7.53
2023-02-05T20:26:07.242Z,11.60
2023-02-05T20:28:36.281Z,6.80
2023-02-05T20:31:06.336Z,7.43
2023-02-05T20:33:32.893Z,7.38
2023-02-05T20:36:07.725Z,8.88
2023-02-05T20:38:34.961Z,8.15
2023-02-05T20:41:10.970Z,9.20
2023-02-05T20:43:37.695Z,9.70
2023-02-05T20:46:05.054Z,7.90
2023-02-05T20:48:31.834Z,9.27
2023-02-05T20:51:11.053Z,6.82
2023-02-05T20:53:38.415Z,6.40
2023-02-05T20:56:11.000Z,7.70
2023-02-05T20:58:37.999Z,7.80
2023-02-05T21:01:10.063Z,8.10
2023-02-05T21:03:37.636Z,6.97
2023-02-05T21:06:04.386Z,6.50
2023-02-05T21:08:31.350Z,7.43
2023-02-05T21:10:57.964Z,10.13
2023-02-05T21:13:24.480Z,7.75
2023-02-05T21:15:53.336Z,7.65
2023-02-05T21:18:20.290Z,8.07
2023-02-05T21:20:46.842Z,7.70
2023-02-05T21:23:13.375Z,8.68
2023-02-05T21:25:39.890Z,9.85
2023-02-05T21:28:06.404Z,10.13
2023-02-05T21:30:33.109Z,8.95
2023-02-05T21:33:00.757Z,6.63
2023-02-05T21:35:27.289Z,11.32
2023-02-05T21:37:53.926Z,8.25
2023-02-05T21:40:20.595Z,6.43
2023-02-05T21:42:47.369Z,5.95
2023-02-05T21:45:13.991Z,4.97
2023-02-05T21:47:40.525Z,5.88
2023-02-05T21:50:07.450Z,6.72
2023-02-05T21:52:33.905Z,6.13
2023-02-05T21:55:00.396Z,5.75
2023-02-05T21:57:26.944Z,6.40
2023-02-05T21:59:53.484Z,6.60
2023-02-05T22:02:20.071Z,6.30
2023-02-05T22:04:46.575Z,8.60
2023-02-05T22:07:13.074Z,6.40
2023-02-05T22:09:39.595Z,5.72
2023-02-05T22:12:06.150Z,9.52
2023-02-05T22:14:33.593Z,4.28
2023-02-05T22:17:00.646Z,4.88
2023-02-05T22:19:27.505Z,6.32
2023-02-05T22:21:54.409Z,5.63
2023-02-05T22:24:22.007Z,4.50
2023-02-05T22:26:48.889Z,3.40
2023-02-05T22:29:18.075Z,5.38
2023-02-05T22:31:45.958Z,5.25
2023-02-05T22:34:12.817Z,8.30
2023-02-05T22:36:39.316Z,6.32
2023-02-05T22:39:06.514Z,5.38
2023-02-05T22:41:36.331Z,5.60
2023-02-05T22:44:04.489Z,9.55
2023-02-05T22:49:01.808Z,9.23
2023-02-05T22:51:32.307Z,11.10
2023-02-05T22:53:59.500Z,7.70
2023-02-05T22:56:26.626Z,6.93
2023-02-05T22:58:55.998Z,5.85
2023-02-05T23:01:32.117Z,5.25
2023-02-05T23:03:59.307Z,8.63
2023-02-05T23:06:28.924Z,11.65
2023-02-05T23:09:08.380Z,11.00
2023-02-05T23:11:35.754Z,10.18
2023-02-05T23:14:03.772Z,16.95
2023-02-05T23:16:33.604Z,16.30
2023-02-05T23:19:02.407Z,16.23
2023-02-05T23:21:31.800Z,12.93
2023-02-05T23:23:58.395Z,11.65
2023-02-05T23:26:27.811Z,12.63
2023-02-05T23:28:55.901Z,11.88
2023-02-05T23:33:50.636Z,8.45
2023-02-05T23:36:17.749Z,10.48
2023-02-05T23:38:44.924Z,8.57
2023-02-05T23:41:11.840Z,7.55
2023-02-05T23:43:38.789Z,4.90
2023-02-05T23:46:07.281Z,4.65
2023-02-05T23:48:34.238Z,7.75
2023-02-05T23:51:00.892Z,5.00
2023-02-05T23:53:27.706Z,6.20
2023-02-05T23:55:54.516Z,4.40
2023-02-05T23:58:22.370Z,4.80
